1 de octubre de 2022

Hora Código Tiempo Temp. Visibilidad Cielo nuboso Viento METAR/SPECI
04:00
V
9 °C 10 km+ 10.000 ft 130° 130° 3 kt METAR LFSL 010200Z AUTO 13003KT 9999 -RA FEW035 BKN100 09/08 Q1019
03:30
V
9 °C 10 km+ 4.000 ft 120° 120° 3 kt METAR LFSL 010130Z AUTO 12003KT 090V170 9999 -RA BKN040/// //////TCU 09/08 Q1019
03:00
V
9 °C 10 km+ 4.300 ft 120° 120° 3 kt METAR LFSL 010100Z AUTO 12003KT 9999 -RA BKN043/// OVC049/// //////TCU 09/08 Q1019
02:30
V
9 °C 10 km+ - 120° 120° 3 kt METAR LFSL 010030Z AUTO 12003KT CAVOK 09/07 Q1019
02:00
V
9 °C 10 km+ - 100° 100° 3 kt METAR LFSL 010000Z AUTO 10003KT CAVOK 09/07 Q1019
01:30
V
9 °C 10 km+ - 120° 120° 4 kt METAR LFSL 302330Z AUTO 12004KT CAVOK 09/07 Q1019
01:00
V
9 °C 10 km+ - Var 000° 0 kt METAR LFSL 302300Z AUTO 00000KT CAVOK 09/07 Q1019
00:30
V
9 °C 10 km+ - Var Var 2 kt METAR LFSL 302230Z AUTO VRB02KT CAVOK 09/07 Q1019
00:00
V
8 °C 10 km+ - Var Var 2 kt METAR LFSL 302200Z AUTO VRB02KT CAVOK 08/08 Q1018

30 de septiembre de 2022

Hora Código Tiempo Temp. Visibilidad Cielo nuboso Viento METAR/SPECI
23:30
V
7 °C 10 km+ - Var 000° 0 kt METAR LFSL 302130Z AUTO 00000KT CAVOK 07/06 Q1018
23:00
V
7 °C 10 km+ - Var 000° 0 kt METAR LFSL 302100Z AUTO 00000KT CAVOK 07/06 Q1018
22:30
V
8 °C 10 km+ - Var 000° 0 kt METAR LFSL 302030Z AUTO 00000KT CAVOK 08/06 Q1018 NOSIG
22:00
V
8 °C 10 km+ - Var 000° 0 kt METAR LFSL 302000Z AUTO 00000KT CAVOK 08/06 Q1017 NOSIG
21:30
V
8 °C 10 km+ - Var 000° 0 kt METAR LFSL 301930Z AUTO 00000KT CAVOK 08/06 Q1017 NOSIG
21:00
V
9 °C 10 km+ - Var 000° 0 kt METAR LFSL 301900Z AUTO 00000KT CAVOK 09/06 Q1017 NOSIG
20:30
V
11 °C 10 km+ - Var 000° 0 kt METAR LFSL 301830Z AUTO 00000KT CAVOK 11/06 Q1016 NOSIG
20:00
V
13 °C 10 km+ - Var Var 3 kt METAR LFSL 301800Z AUTO VRB03KT CAVOK 13/06 Q1016 NOSIG
19:30
V
15 °C 10 km+ - 280° 280° 5 kt METAR LFSL 301730Z AUTO 28005KT 240V310 CAVOK 15/05 Q1016 NOSIG
19:00
V
15 °C 10 km+ - Var Var 5 kt METAR LFSL 301700Z AUTO VRB05KT CAVOK 15/07 Q1016 NOSIG
18:30
V
15 °C 10 km+ - 280° 280° 4 kt METAR LFSL 301630Z AUTO 28004KT 220V310 CAVOK 15/07 Q1016 NOSIG
18:00
V
16 °C 10 km+ 6.400 ft 290° 290° 8 kt METAR LFSL 301600Z AUTO 29008KT 9999 FEW047 BKN064 16/07 Q1015 NOSIG
17:30
V
17 °C 10 km+ 6.400 ft 270° 270° 4 kt METAR LFSL 301530Z AUTO 27004KT 200V340 9999 FEW046 BKN064 17/07 Q1015 NOSIG
17:00
V
16 °C 10 km+ 5.600 ft 330° 330° 5 kt METAR LFSL 301500Z AUTO 33005KT 9999 SCT047 BKN056 16/06 Q1014 NOSIG
16:30
V
16 °C 10 km+ - 320° 320° 4 kt METAR LFSL 301430Z AUTO 32004KT 280V010 CAVOK 16/06 Q1014 NOSIG
16:00
V
17 °C 10 km+ 6.600 ft 290° 290° 6 kt METAR LFSL 301400Z AUTO 29006KT 220V340 9999 FEW048 BKN066 17/06 Q1014 NOSIG
15:30
V
16 °C 10 km+ 6.200 ft 300° 300° 8 kt METAR LFSL 301330Z AUTO 30008KT 200V340 9999 FEW046 BKN062 16/07 Q1014 NOSIG
15:00
V
17 °C 10 km+ 5.800 ft 250° 250° 3 kt METAR LFSL 301300Z AUTO 25003KT 180V320 9999 FEW045 BKN058 17/07 Q1014 NOSIG
14:30
V
16 °C 10 km+ - Var Var 5 kt METAR LFSL 301230Z AUTO VRB05KT 9999 FEW044 SCT052 16/06 Q1014 NOSIG
14:00
V
16 °C 10 km+ - Var Var 6 kt METAR LFSL 301200Z AUTO VRB06KT 9999 FEW034 16/07 Q1014 NOSIG
13:30
V
16 °C 10 km+ - 290° 290° 6 kt METAR LFSL 301130Z AUTO 29006KT 240V320 9999 FEW034 16/07 Q1014 NOSIG
13:00
V
15 °C 10 km+ - 340° 340° 7 kt METAR LFSL 301100Z AUTO 34007KT 300V040 9999 FEW029 15/07 Q1014 NOSIG
12:30
V
15 °C 10 km+ - 300° 300° 5 kt METAR LFSL 301030Z AUTO 30005KT 230V340 9999 FEW021 15/07 Q1014 NOSIG
12:00
V
13 °C 10 km+ - 290° 290° 5 kt METAR LFSL 301000Z AUTO 29005KT 240V320 9999 FEW020 13/08 Q1014 TEMPO BKN008
11:30
V
13 °C 10 km+ - 340° 340° 6 kt METAR LFSL 300930Z AUTO 34006KT 300V030 CAVOK 13/08 Q1014 TEMPO BKN008
11:00
V
12 °C 10 km+ - 360° 360° 4 kt METAR LFSL 300900Z AUTO 36004KT 320V050 CAVOK 12/08 Q1013 TEMPO BKN008
10:30
V
10 °C 10 km+ - 350° 350° 3 kt METAR LFSL 300830Z AUTO 35003KT 310V030 CAVOK 10/08 Q1013 TEMPO BKN008
10:00
V
9 °C 10 km+ 6.600 ft 360° 360° 5 kt METAR LFSL 300800Z AUTO 36005KT 9999 FEW044 BKN066 09/07 Q1013 NOSIG
09:30
V
8 °C 10 km+ 4.500 ft 340° 340° 5 kt METAR LFSL 300730Z AUTO 34005KT 9999 BKN045 BKN054 OVC066 08/08 Q1012 NOSIG
09:00
L
7 °C 10 km+ - Var Var 3 kt METAR LFSL 300700Z AUTO VRB03KT 9999 VV/// 07/07 Q1012 TEMPO 0500 FG BECMG NSC
08:30
L
6 °C 400 m - 310° 310° 2 kt METAR LFSL 300630Z AUTO 31002KT 0400 R29/1000U FG VV/// 06/06 Q1011 BECMG CAVOK
08:00
L
6 °C 2,4 km - 290° 290° 4 kt METAR LFSL 300600Z AUTO 29004KT 9999 2400 VV/// 06/06 Q1011 TEMPO 2000 BR BECMG NSC
07:30
L
6 °C 10 km+ 100 ft 320° 320° 2 kt METAR LFSL 300530Z AUTO 32002KT 9999 BKN001 06/06 Q1010 TEMPO 2000 BR BECMG NSC
07:00
V
7 °C 10 km+ - 290° 290° 3 kt METAR LFSL 300500Z AUTO 29003KT 240V310 CAVOK 07/06 Q1010 NOSIG
06:30
V
7 °C 10 km+ - 290° 290° 4 kt METAR LFSL 300430Z AUTO 29004KT CAVOK 07/06 Q1010 NOSIG
06:00
V
7 °C 10 km+ - 300° 300° 4 kt METAR LFSL 300400Z AUTO 30004KT CAVOK 07/07 Q1009 NOSIG
05:30
V
6 °C 10 km+ - Var 000° 0 kt METAR LFSL 300330Z AUTO 00000KT CAVOK 06/06 Q1009
05:00
V
7 °C 10 km+ - Var Var 3 kt METAR LFSL 300300Z AUTO VRB03KT CAVOK 07/06 Q1009
04:30
V
7 °C 10 km+ - 290° 290° 2 kt METAR LFSL 300230Z AUTO 29002KT CAVOK 07/07 Q1008
04:00
V
8 °C 10 km+ - Var Var 2 kt METAR LFSL 300200Z AUTO VRB02KT CAVOK 08/07 Q1008
03:30
V
8 °C 10 km+ - 300° 300° 4 kt METAR LFSL 300130Z AUTO 30004KT CAVOK 08/07 Q1008
03:00
V
8 °C 10 km+ - 300° 300° 3 kt METAR LFSL 300100Z AUTO 30003KT CAVOK 08/07 Q1008
02:30
V
7 °C 10 km+ - 290° 290° 3 kt METAR LFSL 300030Z AUTO 29003KT CAVOK 07/07 Q1008
02:00
V
8 °C 10 km+ - 310° 310° 3 kt METAR LFSL 300000Z AUTO 31003KT CAVOK 08/07 Q1008
01:30
V
9 °C 10 km+ - 290° 290° 4 kt METAR LFSL 292330Z AUTO 29004KT CAVOK 09/08 Q1008
01:00
V
9 °C 10 km+ - 320° 320° 4 kt METAR LFSL 292300Z AUTO 32004KT CAVOK 09/08 Q1008
00:30
V
9 °C 10 km+ - Var Var 3 kt METAR LFSL 292230Z AUTO VRB03KT CAVOK 09/08 Q1008
00:00
V
10 °C 10 km+ - 340° 340° 3 kt METAR LFSL 292200Z AUTO 34003KT CAVOK 10/08 Q1007

29 de septiembre de 2022

Hora Código Tiempo Temp. Visibilidad Cielo nuboso Viento METAR/SPECI
23:30
V
10 °C 10 km+ - 330° 330° 4 kt METAR LFSL 292130Z AUTO 33004KT CAVOK 10/09 Q1007
23:00
V
10 °C 10 km+ - Var Var 2 kt METAR LFSL 292100Z AUTO VRB02KT CAVOK 10/09 Q1007
22:30
V
10 °C 10 km+ - 310° 310° 3 kt METAR LFSL 292030Z AUTO 31003KT CAVOK 10/09 Q1006
22:00
V
11 °C 10 km+ - 310° 310° 4 kt METAR LFSL 292000Z AUTO 31004KT CAVOK 11/09 Q1006 TEMPO 4000 SHRA BKN030TCU
21:30
V
11 °C 10 km+ - 300° 300° 3 kt METAR LFSL 291930Z AUTO 30003KT CAVOK 11/10 Q1005 TEMPO 4000 SHRA BKN030TCU
21:00
V
12 °C 10 km+ - 290° 290° 3 kt METAR LFSL 291900Z AUTO 29003KT 250V310 CAVOK 12/10 Q1005 TEMPO 4000 SHRA BKN030TCU
20:30
V
12 °C 10 km+ 18.000 ft 300° 300° 3 kt METAR LFSL 291830Z AUTO 30003KT 270V330 9999 FEW046 BKN180 OVC200 12/10 Q1005 TEMPO 4000 SHRA BKN030TCU
20:00
V
13 °C 10 km+ - Var Var 2 kt METAR LFSL 291800Z AUTO VRB02KT CAVOK 13/09 Q1004 TEMPO 4000 SHRA BKN030TCU
19:30
V
14 °C 10 km+ - Var Var 1 kt METAR LFSL 291730Z AUTO VRB01KT CAVOK 14/08 Q1004 TEMPO 4000 SHRA BKN030TCU
19:00
V
14 °C 10 km+ - 280° 280° 3 kt METAR LFSL 291700Z AUTO 28003KT CAVOK 14/08 Q1004 TEMPO 4000 SHRA BKN030TCU
18:30
V
15 °C 10 km+ - 300° 300° 4 kt METAR LFSL 291630Z AUTO 30004KT 260V320 9999 //////TCU 15/07 Q1003 TEMPO 4000 SHRA SCT040
18:00
V
15 °C 10 km+ - 320° 320° 8 kt METAR LFSL 291600Z AUTO 32008KT 290V350 9999 //////CB 15/07 Q1003 BECMG SCT040
17:30
V
16 °C 10 km+ - 310° 310° 7 kt METAR LFSL 291530Z AUTO 31007KT 280V350 CAVOK 16/07 Q1003 NOSIG
17:00
V
16 °C 10 km+ 6.400 ft 340° 340° 8 kt METAR LFSL 291500Z AUTO 34008KT 9999 SCT047 BKN064 OVC078 16/07 Q1003 NOSIG
16:30
V
17 °C 10 km+ 6.400 ft 290° 290° 4 kt METAR LFSL 291430Z AUTO 29004KT 230V020 9999 FEW046 BKN064 BKN076 17/08 Q1003 NOSIG
16:00
V
16 °C 10 km+ 7.400 ft 320° 320° 8 kt METAR LFSL 291400Z AUTO 32008KT 9999 FEW033/// BKN074/// OVC084/// //////TCU 16/07 Q1003 TEMPO 3000 SHRA BECMG SCT040
15:30
V
16 °C 10 km+ 3.700 ft 320° 320° 4 kt METAR LFSL 291330Z AUTO 32004KT 220V030 9999 SCT030/// BKN037/// OVC066/// ///TCU 16/10 Q1003 TEMPO 3000 SHRA BECMG SCT040
15:00
V
15 °C 10 km+ 6.600 ft 330° 330° 3 kt METAR LFSL 291300Z AUTO 33003KT 260V040 9999 FEW028/// OVC066/// //////TCU 15/09 Q1003 TEMPO 3000 SHRA
14:30
V
15 °C 10 km+ 4.700 ft 270° 270° 3 kt METAR LFSL 291230Z AUTO 27003KT 210V310 9999 FEW032 BKN047 BKN054 15/10 Q1003 TEMPO 3000 SHRA BKN015TCU
14:00
M
14 °C 10 km+ 2.700 ft 340° 340° 5 kt METAR LFSL 291200Z AUTO 34005KT 300V030 9999 SCT020 BKN027 BKN041 14/09 Q1003 TEMPO 3000 SHRA BKN015TCU
13:30
V
14 °C 10 km+ 4.700 ft 250° 250° 3 kt METAR LFSL 291130Z AUTO 25003KT 190V280 9999 FEW016 SCT039 BKN047 14/11 Q1003 TEMPO 3000 SHRA BKN015TCU
13:00
V
13 °C 10 km+ 3.700 ft 320° 320° 5 kt METAR LFSL 291100Z AUTO 32005KT 270V360 9999 FEW017 BKN037 BKN043 13/10 Q1003 NOSIG
12:30
V
13 °C 10 km+ 3.400 ft 290° 290° 4 kt METAR LFSL 291030Z AUTO 29004KT 240V320 9999 FEW014/// OVC034/// //////TCU 13/10 Q1004 BECMG SCT030 BKN060
12:00
V
13 °C 10 km+ 3.500 ft 280° 280° 3 kt METAR LFSL 291000Z AUTO 28003KT 190V320 9999 FEW025/// OVC035/// //////TCU 13/11 Q1004 BECMG SCT030 BKN060
11:30
M
12 °C 10 km+ 1.600 ft 270° 270° 3 kt METAR LFSL 290930Z AUTO 27003KT 210V310 9999 BKN016/// BKN025/// BKN036/// //////TCU 12/10 Q1004 BECMG SCT030 BKN060
11:00
M
12 °C 10 km+ 2.400 ft 270° 270° 4 kt METAR LFSL 290900Z AUTO 27004KT 230V330 9999 -RA SCT009/// BKN024/// BKN029/// //////TCU 12/11 Q1004 TEMPO 4000 -RA BECMG SCT030 BKN060
10:30
I
12 °C 10 km+ 900 ft 290° 290° 4 kt METAR LFSL 290830Z AUTO 29004KT 190V330 9999 RA BKN009/// OVC019/// //////TCU 12/11 Q1003 TEMPO OVC010 BECMG NSW
10:00
I
12 °C 10 km+ 900 ft Var Var 2 kt METAR LFSL 290800Z AUTO VRB02KT 9999 BKN009 OVC064 12/11 Q1003 TEMPO OVC010
09:30
M
11 °C 10 km+ 1.100 ft Var Var 2 kt METAR LFSL 290730Z AUTO VRB02KT 9999 SCT005 BKN011 BKN019 11/11 Q1003 TEMPO OVC004
09:00
M
11 °C 10 km+ 1.000 ft 190° 190° 2 kt METAR LFSL 290700Z AUTO 19002KT 9999 BKN010 BKN058 BKN072 11/10 Q1003 TEMPO OVC004
08:30
I
11 °C 10 km+ 800 ft Var Var 2 kt METAR LFSL 290630Z AUTO VRB02KT 9999 FEW003 BKN008 BKN016 11/10 Q1003 TEMPO OVC004
08:00
V
10 °C 10 km+ 3.400 ft Var 000° 0 kt METAR LFSL 290600Z AUTO 00000KT 9999 FEW007 BKN034 BKN096 10/10 Q1003 TEMPO OVC004
07:30
M
11 °C 10 km+ 2.500 ft 170° 170° 1 kt METAR LFSL 290530Z AUTO 17001KT 9999 SCT007 BKN025 OVC032 11/10 Q1003 TEMPO OVC010
07:00
M
11 °C 10 km+ 2.100 ft 220° 220° 2 kt METAR LFSL 290500Z AUTO 22002KT 9999 FEW014 BKN021 BKN027 11/10 Q1004 TEMPO 3000 BR VV///
06:30
V
11 °C 10 km+ - Var Var 2 kt METAR LFSL 290430Z AUTO VRB02KT 9999 FEW023 11/10 Q1004 TEMPO 3000 BR VV///
06:00
V
11 °C 10 km+ - Var Var 2 kt METAR LFSL 290400Z AUTO VRB02KT 9999 FEW028 SCT038 11/10 Q1004 TEMPO 0600 FG VV///
05:30
M
11 °C 10 km+ 2.300 ft Var Var 3 kt METAR LFSL 290330Z AUTO VRB03KT 9999 FEW008 SCT012 BKN023 11/10 Q1004 TEMPO 0600 FG VV///
05:00
V
11 °C 10 km+ 13.000 ft Var Var 2 kt METAR LFSL 290300Z AUTO VRB02KT 9999 SCT012 SCT070 BKN130 11/10 Q1004 TEMPO 0600 FG VV///
04:30
M
11 °C 10 km+ 1.200 ft Var Var 3 kt METAR LFSL 290230Z AUTO VRB03KT 9999 OVC012 11/10 Q1004
04:00
M
11 °C 10 km+ 1.500 ft 270° 270° 4 kt METAR LFSL 290200Z AUTO 27004KT 210V310 9999 BKN015 BKN072 BKN140 11/10 Q1004
03:30
M
11 °C 10 km+ 1.400 ft 270° 270° 4 kt METAR LFSL 290130Z AUTO 27004KT 220V320 9999 BKN014 OVC074 11/10 Q1004
03:00
V
11 °C 10 km+ 7.400 ft 280° 280° 5 kt METAR LFSL 290100Z AUTO 28005KT 230V310 9999 FEW015 BKN074 BKN130 11/10 Q1004
02:30
V
12 °C 10 km+ 7.200 ft 280° 280° 6 kt METAR LFSL 290030Z AUTO 28006KT 230V320 9999 FEW015 BKN072 BKN140 12/10 Q1004
02:00
M
12 °C 10 km+ 1.000 ft 270° 270° 5 kt METAR LFSL 290000Z AUTO 27005KT 180V310 9999 BKN010 BKN019 12/11 Q1004
01:30
V
12 °C 10 km+ 22.000 ft 270° 270° 4 kt METAR LFSL 282330Z AUTO 27004KT 230V320 9999 FEW008 SCT037 BKN220 12/11 Q1005
01:00
M
13 °C 10 km+ 1.400 ft 280° 280° 7 kt METAR LFSL 282300Z AUTO 28007KT 250V330 9999 FEW009 BKN014 BKN039 13/11 Q1005
00:30
M
13 °C 10 km+ 1.600 ft 280° 280° 6 kt METAR LFSL 282230Z AUTO 28006KT 220V320 9999 FEW010/// BKN016/// BKN076/// //////TCU 13/12 Q1005
00:00
M
13 °C 10 km+ 1.300 ft 260° 260° 5 - 16 kt METAR LFSL 282200Z AUTO 26005G16KT 200V310 9999 SCT009/// BKN013/// BKN023/// ///TCU 13/12 Q1005

28 de septiembre de 2022

Hora Código Tiempo Temp. Visibilidad Cielo nuboso Viento METAR/SPECI
23:30
M
13 °C 10 km+ 1.000 ft 270° 270° 5 kt METAR LFSL 282130Z AUTO 27005KT 210V310 9999 -RADZ BKN010/// BKN016/// OVC028/// //////CB 13/12 Q1005
23:00
M
13 °C 10 km+ 1.200 ft 270° 270° 5 kt METAR LFSL 282100Z AUTO 27005KT 210V310 9999 -DZ BKN012/// OVC017/// //////TCU 13/12 Q1005
22:30
M
13 °C 10 km+ 1.500 ft 260° 260° 5 kt METAR LFSL 282030Z AUTO 26005KT 180V300 9999 BKN015/// //////TCU 13/12 Q1005
22:00
M
14 °C 10 km+ 1.400 ft Var Var 6 kt METAR LFSL 282000Z AUTO VRB06KT 9999 BKN014 BKN020 BKN025 14/12 Q1005 TEMPO 27015G25KT 4500 SHRA SCT008 BKN015TCU
21:30
M
14 °C 10 km+ 1.400 ft 270° 270° 6 kt METAR LFSL 281930Z AUTO 27006KT 180V320 9999 BKN014 BKN023 BKN030 14/13 Q1005 TEMPO 27015G25KT 4500 SHRA SCT008 BKN015TCU
21:00
M
14 °C 10 km+ 1.000 ft 270° 270° 8 kt METAR LFSL 281900Z AUTO 27008KT 220V300 9999 BKN010/// BKN015/// OVC026/// ///CB 14/13 Q1004 TEMPO 27015G25KT 2500 RA
20:30
I
14 °C 4,8 km 1.200 ft 270° 270° 4 kt METAR LFSL 281830Z AUTO 27004KT 220V330 4800 RA BR FEW007/// BKN012/// OVC018/// //////CB 14/13 Q1004 TEMPO 27015G25KT 2500 RA BKN008 BKN013TCU BKN015CB
20:00
M
14 °C 10 km+ 1.900 ft 250° 250° 4 kt METAR LFSL 281800Z AUTO 25004KT 190V310 9999 SCT012/// BKN019/// BKN027/// //////CB 14/13 Q1004 TEMPO 27015G25KT 2500 RA BKN008 BKN013TCU BKN015CB
19:30
V
14 °C 10 km+ 5.600 ft 260° 260° 5 kt METAR LFSL 281730Z AUTO 26005KT 200V300 9999 FEW015/// BKN056/// BKN074/// //////TCU 14/13 Q1004 TEMPO 27015G25KT 2500 RA BKN008 BKN013TCU BKN015CB
19:00
M
15 °C 10 km+ 1.700 ft 270° 270° 7 kt METAR LFSL 281700Z AUTO 27007KT 210V300 9999 BKN017 BKN054 BKN068 15/13 Q1004 TEMPO 27015G25KT 2500 RA BKN008 BKN013TCU BKN015CB
Datos más antiguos

Nosotros y terceros seguimos tu comportamiento en Internet en nuestro sitio web con cookies. Si continúas, asumimos que estás de acuerdo con nuestra política de cookies. Más información